createdAt,value
2022-11-21T00:01:44.940Z,16.57
2022-11-21T00:04:34.281Z,14.43
2022-11-21T00:07:24.123Z,17.00
2022-11-21T00:10:13.337Z,13.53
2022-11-21T00:13:02.727Z,13.97
2022-11-21T00:15:51.833Z,14.77
2022-11-21T00:18:42.491Z,12.93
2022-11-21T00:21:31.943Z,11.63
2022-11-21T00:24:21.788Z,11.27
2022-11-21T00:27:11.020Z,12.97
2022-11-21T00:30:00.053Z,14.03
2022-11-21T00:32:49.469Z,12.33
2022-11-21T00:35:39.882Z,11.67
2022-11-21T00:38:29.230Z,10.17
2022-11-21T00:41:18.344Z,11.00
2022-11-21T00:44:07.739Z,12.33
2022-11-21T00:46:56.985Z,12.23
2022-11-21T00:49:46.193Z,13.17
2022-11-21T00:52:36.697Z,9.80
2022-11-21T00:55:26.049Z,9.60
2022-11-21T00:58:14.730Z,11.93
2022-11-21T01:01:09.304Z,14.10
2022-11-21T01:03:59.189Z,11.87
2022-11-21T01:06:48.645Z,8.53
2022-11-21T01:09:39.994Z,9.63
2022-11-21T01:12:30.816Z,9.23
2022-11-21T01:15:19.935Z,11.03
2022-11-21T01:18:10.252Z,10.70
2022-11-21T01:21:01.166Z,10.57
2022-11-21T01:23:50.567Z,9.33
2022-11-21T01:26:41.619Z,7.37
2022-11-21T01:29:30.803Z,10.87
2022-11-21T06:51:04.767Z,11.23
2022-11-21T06:53:57.528Z,5.53
2022-11-21T06:56:46.486Z,6.30
2022-11-21T06:59:37.583Z,6.37
2022-11-21T07:02:27.709Z,6.87
2022-11-21T07:05:16.883Z,8.63
2022-11-21T07:08:13.004Z,12.67
2022-11-21T07:11:24.145Z,11.17
2022-11-21T07:14:11.690Z,8.77
2022-11-21T07:17:00.444Z,7.50
2022-11-21T07:19:49.929Z,7.87
2022-11-21T07:22:39.058Z,11.83
2022-11-21T07:25:35.253Z,6.60
2022-11-21T07:28:25.539Z,8.67
2022-11-21T07:31:15.164Z,5.70
2022-11-21T07:34:04.365Z,8.83
2022-11-21T07:36:53.379Z,8.33
2022-11-21T07:39:42.548Z,12.67
2022-11-21T07:42:33.950Z,13.40
2022-11-21T07:45:23.224Z,13.27
2022-11-21T07:48:13.200Z,12.77
2022-11-21T07:51:05.881Z,44.23
2022-11-21T07:53:54.801Z,5.93
2022-11-21T07:56:43.941Z,7.37
2022-11-21T07:59:34.675Z,6.77
2022-11-21T08:02:24.633Z,6.60
2022-11-21T08:05:14.009Z,7.27
2022-11-21T08:08:02.696Z,9.20
2022-11-21T08:10:52.015Z,12.93
2022-11-21T08:13:41.266Z,10.63
2022-11-21T08:16:33.075Z,6.67
2022-11-21T08:19:22.353Z,9.73
2022-11-21T08:22:12.239Z,7.97
2022-11-21T08:25:01.158Z,7.23
2022-11-21T08:27:50.341Z,6.87
2022-11-21T08:30:40.003Z,10.43
2022-11-21T08:33:30.503Z,7.73
2022-11-21T08:36:19.657Z,8.03
2022-11-21T08:39:09.213Z,8.90
2022-11-21T08:42:04.452Z,8.53
2022-11-21T08:44:54.234Z,8.60
2022-11-21T08:47:43.677Z,9.37
2022-11-21T08:50:34.222Z,8.87
2022-11-21T08:53:23.436Z,11.07
2022-11-21T08:56:14.026Z,12.63
2022-11-21T08:59:04.150Z,12.37
2022-11-21T09:01:56.218Z,10.60
2022-11-21T09:04:46.375Z,15.83
2022-11-21T09:07:36.541Z,13.10
2022-11-21T09:10:25.915Z,11.87
2022-11-21T09:13:14.890Z,12.30
2022-11-21T09:16:21.830Z,12.77
2022-11-21T09:19:11.191Z,12.23
2022-11-21T09:21:59.679Z,12.53
2022-11-21T09:24:50.153Z,14.17
2022-11-21T09:27:38.775Z,15.00
2022-11-21T09:30:28.140Z,17.67
2022-11-21T09:33:18.484Z,14.23
2022-11-21T09:36:07.361Z,13.63
2022-11-21T09:38:56.721Z,15.47
2022-11-21T09:41:56.472Z,13.77
2022-11-21T09:44:59.954Z,14.17
2022-11-21T09:47:51.218Z,11.15
2022-11-21T09:50:44.827Z,15.52
2022-11-21T09:53:39.294Z,14.03
2022-11-21T09:56:31.760Z,14.57
2022-11-21T09:59:34.022Z,13.67
2022-11-21T10:02:26.192Z,14.63
2022-11-21T10:05:16.022Z,11.23
2022-11-21T10:08:16.270Z,14.32
2022-11-21T10:11:20.381Z,14.05
2022-11-21T10:14:14.111Z,19.45
2022-11-21T10:17:15.102Z,15.00
2022-11-21T10:20:16.175Z,19.17
2022-11-21T10:23:24.759Z,16.30
2022-11-21T10:26:19.273Z,17.20
2022-11-21T10:29:19.672Z,21.08
2022-11-21T10:32:21.060Z,22.55
2022-11-21T10:35:17.231Z,19.25
2022-11-21T10:38:23.924Z,20.13
2022-11-21T10:41:20.011Z,21.08
2022-11-21T10:44:35.542Z,21.85
2022-11-21T10:47:32.587Z,18.70
2022-11-21T10:50:40.220Z,22.20
2022-11-21T10:53:47.326Z,16.30
2022-11-21T10:56:37.314Z,21.08
2022-11-21T10:59:30.928Z,16.63
2022-11-21T11:02:24.756Z,15.80
2022-11-21T11:05:22.752Z,19.10
2022-11-21T11:08:12.744Z,17.65
2022-11-21T11:11:05.955Z,18.05
2022-11-21T11:13:58.427Z,20.00
2022-11-21T11:16:48.715Z,20.85
2022-11-21T11:19:40.441Z,16.83
2022-11-21T11:22:31.450Z,21.85
2022-11-21T11:25:20.956Z,16.63
2022-11-21T11:28:10.521Z,16.50
2022-11-21T11:31:00.596Z,19.90
2022-11-21T11:33:53.733Z,17.20
2022-11-21T11:36:48.500Z,15.73
2022-11-21T11:39:40.878Z,18.60
2022-11-21T11:43:11.161Z,18.50
2022-11-21T11:46:29.154Z,19.70
2022-11-21T11:49:21.762Z,15.80
2022-11-21T11:52:12.980Z,16.17
2022-11-21T11:55:06.372Z,14.07
2022-11-21T11:57:57.156Z,14.43
2022-11-21T12:00:49.200Z,13.45
2022-11-21T12:03:43.421Z,17.08
2022-11-21T12:07:07.208Z,14.80
2022-11-21T12:09:47.133Z,16.23
2022-11-21T12:12:39.162Z,16.02
2022-11-21T12:15:48.061Z,12.60
2022-11-21T12:18:42.162Z,17.77
2022-11-21T12:21:33.534Z,18.60
2022-11-21T12:24:23.082Z,14.23
2022-11-21T12:27:20.740Z,13.13
2022-11-21T12:30:21.066Z,12.32
2022-11-21T12:33:15.418Z,15.15
2022-11-21T12:36:18.277Z,14.80
2022-11-21T12:39:18.483Z,13.63
2022-11-21T12:42:30.110Z,14.30
2022-11-21T12:45:36.705Z,17.98
2022-11-21T12:48:58.093Z,13.32
2022-11-21T12:52:12.491Z,13.27
2022-11-21T12:55:16.457Z,12.75
2022-11-21T12:58:19.020Z,17.55
2022-11-21T13:01:22.192Z,25.30
2022-11-21T13:04:12.110Z,17.25
2022-11-21T13:07:01.728Z,10.38
2022-11-21T13:09:52.899Z,16.08
2022-11-21T13:12:45.116Z,15.38
2022-11-21T13:15:38.921Z,17.48
2022-11-21T13:18:32.526Z,15.68
2022-11-21T13:21:40.686Z,16.33
2022-11-21T13:24:48.834Z,14.80
2022-11-21T13:27:39.603Z,17.92
2022-11-21T13:30:28.840Z,15.55
2022-11-21T13:36:13.223Z,13.15
2022-11-21T13:39:17.153Z,13.68
2022-11-21T13:42:24.745Z,13.15
2022-11-21T13:45:37.683Z,19.92
2022-11-21T13:48:44.610Z,17.85
2022-11-21T13:51:53.376Z,15.93
2022-11-21T13:55:14.893Z,17.00
2022-11-21T13:58:11.628Z,13.73
2022-11-21T14:01:13.839Z,14.85
2022-11-21T14:04:42.369Z,14.85
2022-11-21T14:07:34.951Z,16.60
2022-11-21T14:10:34.098Z,15.70
2022-11-21T14:13:29.143Z,15.32
2022-11-21T14:16:30.603Z,15.88
2022-11-21T14:19:21.862Z,14.50
2022-11-21T14:22:18.602Z,17.63
2022-11-21T14:25:15.365Z,19.25
2022-11-21T14:28:08.336Z,15.57
2022-11-21T14:31:02.169Z,19.63
2022-11-21T14:33:58.010Z,17.10
2022-11-21T14:36:47.678Z,23.40
2022-11-21T14:39:44.558Z,24.75
2022-11-21T14:42:39.369Z,26.05
2022-11-21T14:45:28.959Z,24.90
2022-11-21T14:48:17.936Z,24.35
2022-11-21T14:51:07.062Z,20.98
2022-11-21T14:53:56.429Z,19.45
2022-11-21T14:56:47.888Z,28.73
2022-11-21T14:59:42.526Z,26.33
2022-11-21T15:02:34.285Z,22.15
2022-11-21T15:06:00.204Z,21.20
2022-11-21T15:09:18.457Z,20.65
2022-11-21T15:11:52.531Z,17.67
2022-11-21T15:14:47.560Z,17.85
2022-11-21T15:17:36.606Z,17.02
2022-11-21T15:20:26.543Z,16.50
2022-11-21T15:23:30.671Z,18.67
2022-11-21T15:26:33.002Z,34.05
2022-11-21T15:29:23.334Z,49.40
2022-11-21T15:32:16.816Z,26.08
2022-11-21T15:35:32.153Z,21.15
2022-11-21T15:38:43.623Z,24.23
2022-11-21T15:41:33.610Z,22.10
2022-11-21T15:44:23.775Z,28.35
2022-11-21T15:47:14.772Z,26.03
2022-11-21T15:50:04.409Z,22.10
2022-11-21T15:52:53.868Z,25.98
2022-11-21T15:55:42.923Z,21.15
2022-11-21T15:58:31.893Z,28.58
2022-11-21T16:01:21.888Z,26.02
2022-11-21T16:04:12.956Z,42.15
2022-11-21T16:07:02.362Z,54.85
2022-11-21T16:09:52.434Z,35.92
2022-11-21T16:12:41.525Z,38.85
2022-11-21T16:15:30.160Z,28.98
2022-11-21T16:18:19.286Z,25.20
2022-11-21T16:21:11.073Z,27.17
2022-11-21T16:24:00.664Z,24.97
2022-11-21T16:26:53.335Z,22.47
2022-11-21T16:29:42.835Z,25.60
2022-11-21T16:32:32.015Z,26.10
2022-11-21T16:35:21.199Z,24.27
2022-11-21T16:38:11.892Z,23.80
2022-11-21T16:41:01.579Z,23.67
2022-11-21T16:43:52.630Z,25.58
2022-11-21T16:46:44.379Z,24.93
2022-11-21T16:49:33.182Z,27.45
2022-11-21T16:52:22.629Z,24.10
2022-11-21T16:55:13.297Z,28.63
2022-11-21T16:58:01.976Z,23.98
2022-11-21T17:00:51.200Z,27.67
2022-11-21T17:03:41.211Z,24.33
2022-11-21T17:06:31.459Z,27.83
2022-11-21T17:09:20.938Z,31.75
2022-11-21T17:12:11.551Z,29.23
2022-11-21T17:15:00.615Z,31.98
2022-11-21T17:17:50.280Z,33.87
2022-11-21T17:20:39.222Z,29.37
2022-11-21T17:23:28.514Z,34.38
2022-11-21T17:26:19.038Z,33.97
2022-11-21T17:29:10.315Z,32.47
2022-11-21T17:31:59.403Z,33.78
2022-11-21T17:34:48.727Z,33.20
2022-11-21T17:37:37.836Z,33.88
2022-11-21T17:40:26.608Z,36.53
2022-11-21T17:43:15.918Z,36.70
2022-11-21T17:46:10.393Z,35.95
2022-11-21T17:49:00.041Z,34.13
2022-11-21T17:51:55.232Z,36.30
2022-11-21T17:54:45.101Z,34.77
2022-11-21T17:57:33.988Z,35.22
2022-11-21T18:00:23.469Z,35.43
2022-11-21T18:03:14.355Z,43.00
2022-11-21T18:06:04.224Z,38.17
2022-11-21T18:08:53.088Z,43.97
2022-11-21T18:11:42.685Z,41.37
2022-11-21T18:14:33.242Z,45.20
2022-11-21T18:17:22.083Z,41.70
2022-11-21T18:20:13.673Z,48.17
2022-11-21T18:23:04.084Z,49.53
2022-11-21T18:25:53.689Z,47.37
2022-11-21T18:28:43.290Z,47.00
2022-11-21T18:31:32.749Z,47.67
2022-11-21T18:34:21.498Z,49.97
2022-11-21T18:37:12.542Z,55.00
2022-11-21T18:40:01.424Z,52.57
2022-11-21T18:42:50.399Z,52.27
2022-11-21T18:45:39.094Z,55.20
2022-11-21T18:48:28.188Z,52.90
2022-11-21T18:51:19.613Z,57.47
2022-11-21T18:54:11.398Z,59.47
2022-11-21T18:57:00.775Z,63.33
2022-11-21T18:59:50.550Z,62.97
2022-11-21T19:02:39.557Z,63.23
2022-11-21T19:05:28.659Z,61.93
2022-11-21T19:08:17.407Z,65.40
2022-11-21T19:11:10.158Z,63.83
2022-11-21T19:14:00.666Z,65.47
2022-11-21T19:16:50.726Z,69.97
2022-11-21T19:19:39.902Z,67.87
2022-11-21T19:22:29.556Z,60.17
2022-11-21T19:25:18.663Z,72.03
2022-11-21T19:28:09.433Z,64.93
2022-11-21T19:30:59.305Z,69.53
2022-11-21T19:33:49.198Z,68.20
2022-11-21T19:36:39.730Z,71.00
2022-11-21T19:39:30.500Z,70.90
2022-11-21T19:42:19.990Z,62.17
2022-11-21T19:45:11.363Z,70.50
2022-11-21T19:48:00.406Z,69.47
2022-11-21T19:50:58.523Z,69.90
2022-11-21T19:53:48.463Z,69.73
2022-11-21T19:56:38.545Z,71.53
2022-11-21T19:59:28.510Z,69.30
2022-11-21T20:02:21.805Z,68.53
2022-11-21T20:05:12.362Z,75.30
2022-11-21T20:08:06.326Z,72.03
2022-11-21T20:11:06.105Z,69.93
2022-11-21T20:13:55.721Z,69.90
2022-11-21T20:16:46.219Z,70.60
2022-11-21T20:19:36.213Z,67.77
2022-11-21T20:22:25.498Z,70.37
2022-11-21T20:25:15.077Z,68.33
2022-11-21T20:28:08.685Z,71.57
2022-11-21T20:31:06.020Z,69.23
2022-11-21T20:33:56.905Z,68.37
2022-11-21T20:36:47.880Z,74.10
2022-11-21T20:39:37.093Z,69.40
2022-11-21T20:42:26.439Z,73.90
2022-11-21T20:48:24.296Z,74.93
2022-11-21T20:54:23.570Z,74.47
2022-11-21T20:57:15.320Z,72.20
2022-11-21T21:00:04.580Z,69.93
2022-11-21T21:02:54.342Z,70.97
2022-11-21T21:05:43.162Z,67.03
2022-11-21T21:08:33.062Z,68.97
2022-11-21T21:14:34.643Z,67.47
2022-11-21T21:17:23.440Z,69.63
2022-11-21T21:20:13.938Z,72.57
2022-11-21T21:23:03.013Z,71.70
2022-11-21T21:25:51.765Z,73.13
2022-11-21T21:28:43.152Z,71.43
2022-11-21T21:31:32.849Z,67.37
2022-11-21T21:34:22.901Z,69.57
2022-11-21T21:37:12.169Z,69.00
2022-11-21T21:40:01.372Z,64.50
2022-11-21T21:42:50.394Z,67.63
2022-11-21T21:45:40.468Z,67.20
2022-11-21T21:48:29.184Z,68.37
2022-11-21T21:51:20.251Z,67.20
2022-11-21T21:54:09.091Z,68.17
2022-11-21T21:56:58.322Z,74.03
2022-11-21T21:59:47.523Z,69.83
2022-11-21T22:02:39.601Z,67.50
2022-11-21T22:05:28.937Z,72.17
2022-11-21T22:08:17.851Z,69.20
2022-11-21T22:11:07.680Z,61.43
2022-11-21T22:13:58.568Z,64.60
2022-11-21T22:16:48.026Z,76.17
2022-11-21T22:19:39.006Z,64.87
2022-11-21T22:22:27.820Z,70.37
2022-11-21T22:25:16.660Z,59.33
2022-11-21T22:28:07.875Z,65.10
2022-11-21T22:30:56.861Z,62.80
2022-11-21T22:33:47.075Z,66.03
2022-11-21T22:36:37.628Z,66.33
2022-11-21T22:39:27.701Z,64.60
2022-11-21T22:42:16.349Z,67.30
2022-11-21T22:45:05.839Z,61.20
2022-11-21T22:47:55.435Z,63.00
2022-11-21T22:50:46.450Z,66.60
2022-11-21T22:53:40.168Z,59.47
2022-11-21T22:56:29.749Z,61.30
2022-11-21T22:59:18.936Z,58.43
2022-11-21T23:02:08.011Z,59.03
2022-11-21T23:04:57.148Z,65.83
2022-11-21T23:07:46.397Z,58.97
2022-11-21T23:10:38.614Z,58.77
2022-11-21T23:13:27.710Z,58.47
2022-11-21T23:16:17.759Z,62.10
2022-11-21T23:19:06.597Z,58.50
2022-11-21T23:21:57.444Z,56.63
2022-11-21T23:24:47.239Z,51.30
2022-11-21T23:27:38.295Z,56.80
2022-11-21T23:30:27.340Z,52.43
2022-11-21T23:33:17.097Z,57.37
2022-11-21T23:36:06.662Z,51.20
2022-11-21T23:38:55.476Z,46.87
2022-11-21T23:41:44.466Z,52.93
2022-11-21T23:44:34.642Z,44.50
2022-11-21T23:47:23.978Z,48.63
2022-11-21T23:50:12.461Z,42.63
2022-11-21T23:53:01.415Z,43.00
2022-11-21T23:55:51.210Z,42.90
2022-11-21T23:58:40.566Z,44.70
